CT1AKV-10 Estrada Real PT current weather conditions

sailwx.info

Wind from 306 at 6 knots gusting 14

Air temperature 18.3° C
Dewpoint -13.8° C

Last reported at 2015-Feb-27 12:45 UTC.
Time now 2015-Feb-27 13:14 UTC

Location: N 39°11' W 008°44'.
View on Google Maps.

See reports from other nearby stations

  
Tides and Currents Weather Stations Pressure Air Temp Water Temp Dewpoint Dewpoint Depression Visibility Wind Speed Wind Dir Waves Ship Positions
date/time (UTC)wind fromknots sea level pressurealtimeterstation pressurevisibilityair tempwater tempwave heightnotes
2015-Feb-27 12:45 306 6 gusting 14 18.3
2015-Feb-27 12:30 319 6 gusting 13 18.3
2015-Feb-27 12:15 310 6 gusting 14 17.8
2015-Feb-27 12:00 314 5 gusting 11 18.3
2015-Feb-27 11:45 356 4 gusting 12 18.3
2015-Feb-27 11:30 346 5 gusting 13 17.2
2015-Feb-27 11:15 348 6 gusting 13 16.7
2015-Feb-27 11:00 331 4 gusting 10 16.7
2015-Feb-27 10:45 327 5 gusting 13 16.7
2015-Feb-27 10:30 324 5 gusting 13 16.1
2015-Feb-27 10:15 356 5 gusting 13 16.1
2015-Feb-27 10:00 323 4 gusting 12 16.1
2015-Feb-27 09:45 334 2 gusting 8 16.7
2015-Feb-26 21:00 309 4 gusting 11 12.2
2015-Feb-26 20:45 354 4 gusting 13 12.2
2015-Feb-26 20:30 323 4 gusting 9 11.7
2015-Feb-26 20:15 317 4 gusting 10 11.7
2015-Feb-26 20:00 326 3 gusting 8 11.7
2015-Feb-26 19:45 298 3 gusting 8 11.7
2015-Feb-26 19:30 314 2 gusting 6 11.7
2015-Feb-26 19:15 319 3 gusting 12 11.7
2015-Feb-26 19:00 314 4 gusting 13 11.7
2015-Feb-26 18:45 324 4 gusting 9 12.2
2015-Feb-26 18:30 327 3 gusting 9 11.7
2015-Feb-26 18:15 331 3 gusting 10 12.2
2015-Feb-26 18:00 320 4 gusting 10 12.8
2015-Feb-26 17:45 324 5 gusting 11 13.3
2015-Feb-26 17:30 304 3 gusting 8 13.3
2015-Feb-26 17:15 322 4 gusting 9 13.3
2015-Feb-26 17:00 316 5 gusting 13 13.3
2015-Feb-26 16:45 341 5 gusting 12 13.9
2015-Feb-26 16:30 319 4 gusting 13 14.4
2015-Feb-26 16:15 320 6 gusting 13 15.0
2015-Feb-26 16:00 343 5 gusting 12 15.6
2015-Feb-26 15:45 313 5 gusting 11 15.6
2015-Feb-26 15:30 330 5 gusting 12 16.7
2015-Feb-26 15:15 336 4 gusting 10 17.2
2015-Feb-26 15:00 337 4 gusting 13 16.7
2015-Feb-26 14:45 326 6 gusting 13 16.1
2015-Feb-26 14:30 338 6 gusting 13 15.6
2015-Feb-26 14:15 315 5 gusting 14 15.6
2015-Feb-26 14:00 337 6 gusting 14 15.0
2015-Feb-26 13:45 329 6 gusting 14 15.0
2015-Feb-26 13:30 315 4 gusting 12 15.0
2015-Feb-26 13:15 339 5 gusting 13 15.0
2015-Feb-26 13:00 344 4 gusting 9 15.0
2015-Feb-26 12:45 334 5 gusting 12 15.0
2015-Feb-26 12:30 327 4 gusting 10 15.0
2015-Feb-26 12:15 340 5 gusting 12 14.4
2015-Feb-26 12:00 309 5 gusting 13 15.0
2015-Feb-26 11:45 315 4 gusting 10 14.4
2015-Feb-26 11:30 331 4 gusting 13 14.4
2015-Feb-26 11:15 359 5 gusting 13 14.4
2015-Feb-26 11:00 336 4 gusting 11 14.4
2015-Feb-26 10:45 330 4 gusting 9 14.4
2015-Feb-26 10:30 333 5 gusting 13 13.9
2015-Feb-25 22:30 332 0 gusting 3 9.4
2015-Feb-25 22:15 321 0 gusting 3 9.4
2015-Feb-25 22:00 301 0 gusting 5 10.0
2015-Feb-25 21:45 313 2 gusting 6 10.0
2015-Feb-25 21:30 317 1 gusting 4 10.0
2015-Feb-25 21:15 320 2 gusting 6 10.6
2015-Feb-25 21:00 302 2 gusting 6 10.6
2015-Feb-25 20:45 313 4 gusting 8 10.6
2015-Feb-25 20:30 342 3 gusting 8 10.6
2015-Feb-25 20:15 319 2 gusting 8 10.6
2015-Feb-25 20:00 329 4 gusting 9 11.1
2015-Feb-25 19:45 332 3 gusting 12 11.1
2015-Feb-25 19:30 332 5 gusting 13 11.1
2015-Feb-25 19:15 340 4 gusting 13 11.1
2015-Feb-25 19:00 323 5 gusting 13 11.1
2015-Feb-25 18:45 307 6 gusting 14 11.7
2015-Feb-25 18:30 324 5 gusting 13 11.7
2015-Feb-25 18:15 328 4 gusting 10 11.7
2015-Feb-25 18:00 299 5 gusting 11 12.2
2015-Feb-25 17:45 298 5 gusting 11 12.8
2015-Feb-25 17:30 311 6 gusting 14 12.8
2015-Feb-25 17:15 326 5 gusting 13 13.3
2015-Feb-25 17:00 321 6 gusting 16 13.9
2015-Feb-25 16:45 317 4 gusting 10 14.4
2015-Feb-25 16:30 330 6 gusting 14 14.4
2015-Feb-25 16:15 328 6 gusting 13 14.4
2015-Feb-25 16:00 331 6 gusting 18 15.0
2015-Feb-25 15:45 011 6 gusting 13 15.6
2015-Feb-25 15:30 334 6 gusting 13 16.7
2015-Feb-25 15:15 339 6 gusting 13 16.7
2015-Feb-25 15:00 344 5 gusting 13 17.8
2015-Feb-25 14:45 346 4 gusting 9 17.8
2015-Feb-25 14:30 326 3 gusting 9 16.1
2015-Feb-25 14:15 336 3 gusting 7 15.6
2015-Feb-25 14:00 343 4 gusting 9 14.4
2015-Feb-25 13:45 342 4 gusting 9 14.4
2015-Feb-25 13:30 321 4 gusting 10 14.4
2015-Feb-25 13:15 336 4 gusting 11 15.0
2015-Feb-25 13:00 329 4 gusting 12 15.0